createdAt,value
2022-10-05T00:01:33.034Z,100593.91
2022-10-05T00:04:12.225Z,100604.03
2022-10-05T00:06:40.918Z,100610.66
2022-10-05T00:09:14.846Z,100619.16
2022-10-05T00:11:43.968Z,100602.16
2022-10-05T00:14:19.079Z,100606.31
2022-10-05T00:16:49.884Z,100605.34
2022-10-05T00:19:23.417Z,100606.03
2022-10-05T00:21:52.067Z,100605.03
2022-10-05T00:24:21.659Z,100612.47
2022-10-05T00:26:55.392Z,100610.00
2022-10-05T00:29:26.663Z,100608.34
2022-10-05T00:31:56.773Z,100610.03
2022-10-05T00:34:27.616Z,100617.56
2022-10-05T00:36:56.246Z,100620.16
2022-10-05T00:39:24.856Z,100621.06
2022-10-05T00:42:15.016Z,100614.16
2022-10-05T00:44:50.260Z,100613.31
2022-10-05T00:47:33.457Z,100616.66
2022-10-05T00:50:19.631Z,100624.28
2022-10-05T00:53:03.196Z,100623.50
2022-10-05T00:55:43.656Z,100628.47
2022-10-05T00:58:23.865Z,100622.31
2022-10-05T01:01:05.536Z,100622.06
2022-10-05T01:03:49.140Z,100610.03
2022-10-05T01:06:26.887Z,100620.25
2022-10-05T01:09:06.979Z,100611.72
2022-10-05T01:11:43.849Z,100618.44
2022-10-05T01:14:21.888Z,100615.72
2022-10-05T01:16:58.027Z,100623.44
2022-10-05T01:19:58.380Z,100622.50
2022-10-05T01:22:44.520Z,100621.41
2022-10-05T01:25:25.140Z,100619.59
2022-10-05T01:28:04.860Z,100605.91
2022-10-05T01:30:39.696Z,100613.50
2022-10-05T01:33:19.096Z,100609.19
2022-10-05T01:35:56.995Z,100616.91
2022-10-05T01:38:37.355Z,100630.56
2022-10-05T01:41:19.761Z,100618.81
2022-10-05T01:43:54.427Z,100611.28
2022-10-05T01:46:32.376Z,100610.59
2022-10-05T01:49:19.287Z,100613.28
2022-10-05T01:52:00.380Z,100604.09
2022-10-05T01:54:46.376Z,100603.34
2022-10-05T01:57:23.918Z,100605.72
2022-10-05T02:00:05.130Z,100603.91
2022-10-05T02:02:48.951Z,100588.75
2022-10-05T02:05:23.220Z,100595.41
2022-10-05T02:07:58.927Z,100591.00
2022-10-05T02:10:33.035Z,100588.63
2022-10-05T02:13:10.900Z,100595.41
2022-10-05T02:15:45.755Z,100594.69
2022-10-05T02:18:21.157Z,100594.78
2022-10-05T02:20:53.994Z,100593.94
2022-10-05T02:23:27.350Z,100598.94
2022-10-05T02:25:57.718Z,100601.38
2022-10-05T02:28:33.697Z,100589.63
2022-10-05T02:31:08.551Z,100591.97
2022-10-05T02:33:37.826Z,100597.03
2022-10-05T02:36:17.567Z,100589.19
2022-10-05T02:39:00.755Z,100600.13
2022-10-05T02:41:40.146Z,100602.75
2022-10-05T02:44:16.889Z,100604.44
2022-10-05T02:46:57.447Z,100606.97
2022-10-05T02:49:34.960Z,100610.41
2022-10-05T02:52:10.115Z,100625.63
2022-10-05T02:54:49.050Z,100629.81
2022-10-05T02:57:28.247Z,100621.44
2022-10-05T03:00:07.408Z,100622.34
2022-10-05T03:02:45.887Z,100618.22
2022-10-05T03:05:22.115Z,100606.41
2022-10-05T03:08:00.490Z,100605.53
2022-10-05T03:10:38.686Z,100590.84
2022-10-05T03:13:14.568Z,100582.34
2022-10-05T03:16:04.699Z,100577.16
2022-10-05T03:18:47.343Z,100586.84
2022-10-05T03:21:32.398Z,100580.66
2022-10-05T03:24:19.526Z,100576.25
2022-10-05T03:26:58.067Z,100570.06
2022-10-05T03:29:35.249Z,100560.31
2022-10-05T03:32:19.419Z,100557.56
2022-10-05T03:34:55.348Z,100553.44
2022-10-05T03:37:35.478Z,100552.06
2022-10-05T03:40:11.549Z,100555.69
2022-10-05T03:43:00.190Z,100544.94
2022-10-05T03:45:35.165Z,100527.28
2022-10-05T03:48:09.978Z,100525.75
2022-10-05T03:50:51.383Z,100529.03
2022-10-05T03:53:22.117Z,100527.47
2022-10-05T03:56:01.360Z,100532.59
2022-10-05T03:58:40.689Z,100522.53
2022-10-05T04:01:15.041Z,100508.88
2022-10-05T04:03:47.339Z,100519.19
2022-10-05T04:06:23.856Z,100517.47
2022-10-05T04:08:58.609Z,100527.63
2022-10-05T04:11:33.160Z,100529.34
2022-10-05T04:14:07.672Z,100544.59
2022-10-05T04:16:42.417Z,100549.66
2022-10-05T04:19:16.515Z,100547.94
2022-10-05T04:21:53.351Z,100547.94
2022-10-05T04:24:30.623Z,100548.81
2022-10-05T04:27:02.207Z,100560.72
2022-10-05T04:29:39.880Z,100580.22
2022-10-05T04:32:30.830Z,100580.34
2022-10-05T04:35:20.239Z,100580.34
2022-10-05T04:38:00.838Z,100590.50
2022-10-05T04:40:42.881Z,100592.16
2022-10-05T04:43:20.324Z,100592.25
2022-10-05T04:46:15.213Z,100609.19
2022-10-05T04:49:06.013Z,100610.97
2022-10-05T04:51:42.109Z,100620.34
2022-10-05T04:54:21.169Z,100626.41
2022-10-05T04:56:56.538Z,100633.22
2022-10-05T04:59:44.988Z,100640.81
2022-10-05T05:02:25.350Z,100624.00
2022-10-05T05:05:24.631Z,100630.00
2022-10-05T05:08:18.499Z,100638.59
2022-10-05T05:11:06.082Z,100640.22
2022-10-05T05:13:51.991Z,100646.94
2022-10-05T05:16:31.775Z,100652.13
2022-10-05T05:19:11.174Z,100657.28
2022-10-05T05:21:49.175Z,100655.56
2022-10-05T05:24:29.583Z,100654.69
2022-10-05T05:27:14.262Z,100654.69
2022-10-05T05:29:54.260Z,100655.41
2022-10-05T05:32:34.353Z,100660.53
2022-10-05T05:35:24.980Z,100672.53
2022-10-05T05:38:06.702Z,100667.59
2022-10-05T05:40:41.811Z,100661.78
2022-10-05T05:43:24.853Z,100661.09
2022-10-05T05:46:01.214Z,100664.59
2022-10-05T05:48:39.565Z,100659.75
2022-10-05T05:51:15.714Z,100650.59
2022-10-05T05:53:47.102Z,100654.03
2022-10-05T05:56:21.555Z,100660.94
2022-10-05T05:58:56.329Z,100661.72
2022-10-05T06:01:34.058Z,100659.06
2022-10-05T06:04:14.141Z,100669.28
2022-10-05T06:06:48.789Z,100664.47
2022-10-05T06:09:24.461Z,100663.81
2022-10-05T06:12:07.323Z,100659.06
2022-10-05T06:14:45.320Z,100661.06
2022-10-05T06:17:19.241Z,100656.16
2022-10-05T06:19:50.529Z,100664.16
2022-10-05T06:22:24.280Z,100663.53
2022-10-05T06:25:05.514Z,100665.56
2022-10-05T06:27:39.122Z,100668.28
2022-10-05T06:30:15.332Z,100660.06
2022-10-05T06:33:10.054Z,100667.13
2022-10-05T06:35:53.094Z,100673.31
2022-10-05T06:38:39.184Z,100667.53
2022-10-05T06:41:16.815Z,100671.97
2022-10-05T06:43:58.274Z,100664.59
2022-10-05T06:46:50.917Z,100667.38
2022-10-05T06:49:54.704Z,100670.19
2022-10-05T06:52:40.889Z,100664.50
2022-10-05T06:55:19.816Z,100656.13
2022-10-05T06:58:11.094Z,100647.88
2022-10-05T07:00:44.198Z,100651.28
2022-10-05T07:03:24.337Z,100648.81
2022-10-05T07:06:02.394Z,100651.53
2022-10-05T07:08:40.662Z,100650.81
2022-10-05T07:11:22.124Z,100667.19
2022-10-05T07:14:20.011Z,100675.84
2022-10-05T07:17:17.592Z,100679.41
2022-10-05T07:19:56.273Z,100670.94
2022-10-05T07:23:02.997Z,100676.19
2022-10-05T07:25:39.613Z,100667.94
2022-10-05T07:28:14.813Z,100657.91
2022-10-05T07:30:51.691Z,100659.63
2022-10-05T07:33:26.354Z,100661.47
2022-10-05T07:36:14.954Z,100667.53
2022-10-05T07:38:49.413Z,100659.94
2022-10-05T07:41:24.153Z,100684.94
2022-10-05T07:44:02.458Z,100686.00
2022-10-05T07:46:48.391Z,100685.34
2022-10-05T07:49:27.626Z,100684.59
2022-10-05T07:52:03.085Z,100682.16
2022-10-05T07:54:39.522Z,100677.94
2022-10-05T07:57:21.672Z,100684.94
2022-10-05T07:59:58.064Z,100680.75
2022-10-05T08:02:31.470Z,100684.25
2022-10-05T08:05:05.014Z,100681.75
2022-10-05T08:07:38.216Z,100679.22
2022-10-05T08:10:24.305Z,100672.41
2022-10-05T08:13:04.373Z,100671.59
2022-10-05T08:15:38.460Z,100675.13
2022-10-05T08:18:15.631Z,100673.50
2022-10-05T08:20:48.104Z,100674.44
2022-10-05T08:23:25.374Z,100671.97
2022-10-05T08:26:07.015Z,100666.91
2022-10-05T08:28:39.822Z,100659.22
2022-10-05T08:31:22.976Z,100667.75
2022-10-05T08:34:00.187Z,100675.44
2022-10-05T08:36:45.023Z,100676.25
2022-10-05T08:39:20.502Z,100673.72
2022-10-05T08:42:11.181Z,100666.94
2022-10-05T08:45:02.798Z,100666.16
2022-10-05T08:47:48.224Z,100663.63
2022-10-05T08:50:37.316Z,100669.63
2022-10-05T08:53:22.135Z,100669.66
2022-10-05T08:56:28.618Z,100673.94
2022-10-05T08:59:26.534Z,100669.63
2022-10-05T09:02:21.028Z,100663.66
2022-10-05T09:05:18.744Z,100664.53
2022-10-05T09:08:09.312Z,100653.38
2022-10-05T09:11:02.653Z,100661.97
2022-10-05T09:13:55.724Z,100659.38
2022-10-05T09:16:46.155Z,100649.97
2022-10-05T09:19:45.672Z,100645.69
2022-10-05T09:22:24.392Z,100639.69
2022-10-05T09:24:58.014Z,100640.53
2022-10-05T09:27:37.776Z,100640.53
2022-10-05T09:30:18.681Z,100649.91
2022-10-05T09:33:17.773Z,100650.72
2022-10-05T09:36:11.442Z,100660.09
2022-10-05T09:39:05.560Z,100649.69
2022-10-05T09:42:00.926Z,100641.88
2022-10-05T09:45:01.178Z,100646.00
2022-10-05T09:47:55.923Z,100651.06
2022-10-05T09:50:50.067Z,100657.84
2022-10-05T09:53:54.438Z,100651.75
2022-10-05T09:56:52.117Z,100649.09
2022-10-05T09:59:53.537Z,100653.25
2022-10-05T10:02:42.445Z,100657.53
2022-10-05T10:05:31.577Z,100654.88
2022-10-05T10:08:16.176Z,100657.41
2022-10-05T10:11:02.090Z,100654.78
2022-10-05T10:14:01.185Z,100649.63
2022-10-05T10:16:50.988Z,100645.41
2022-10-05T10:19:47.099Z,100636.91
2022-10-05T10:22:43.829Z,100642.91
2022-10-05T10:25:40.892Z,100641.22
2022-10-05T10:28:31.961Z,100641.22
2022-10-05T10:31:25.066Z,100636.91
2022-10-05T10:34:19.484Z,100645.38
2022-10-05T10:37:16.526Z,100643.56
2022-10-05T10:40:16.134Z,100641.69
2022-10-05T10:43:04.310Z,100635.53
2022-10-05T10:45:47.894Z,100644.06
2022-10-05T10:48:40.985Z,100639.81
2022-10-05T10:51:19.986Z,100634.75
2022-10-05T10:54:12.594Z,100627.88
2022-10-05T10:56:59.928Z,100624.47
2022-10-05T10:59:57.127Z,100618.41
2022-10-05T11:02:51.903Z,100621.69
2022-10-05T11:05:41.043Z,100598.38
2022-10-05T11:08:30.369Z,100597.38
2022-10-05T11:11:17.940Z,100596.34
2022-10-05T11:14:22.387Z,100579.84
2022-10-05T11:17:19.338Z,100584.94
2022-10-05T11:20:09.610Z,100576.13
2022-10-05T11:22:51.405Z,100569.06
2022-10-05T11:25:48.569Z,100571.47
2022-10-05T11:28:46.737Z,100562.81
2022-10-05T11:31:47.093Z,100560.03
2022-10-05T11:34:41.864Z,100555.59
2022-10-05T11:37:37.835Z,100564.03
2022-10-05T11:40:33.387Z,100568.38
2022-10-05T11:43:35.610Z,100562.34
2022-10-05T11:46:12.185Z,100564.13
2022-10-05T11:48:54.146Z,100553.78
2022-10-05T11:51:35.549Z,100562.47
2022-10-05T11:54:17.939Z,100570.31
2022-10-05T11:56:54.656Z,100564.28
2022-10-05T11:59:34.869Z,100568.63
2022-10-05T12:02:15.450Z,100573.16
2022-10-05T12:04:53.677Z,100561.13
2022-10-05T12:07:31.349Z,100566.41
2022-10-05T12:10:20.620Z,100559.66
2022-10-05T12:13:14.993Z,100563.09
2022-10-05T12:15:50.641Z,100553.59
2022-10-05T12:18:26.727Z,100557.78
2022-10-05T12:21:01.047Z,100556.03
2022-10-05T12:23:37.401Z,100563.72
2022-10-05T12:26:11.268Z,100562.06
2022-10-05T12:28:47.668Z,100554.25
2022-10-05T12:31:29.174Z,100549.94
2022-10-05T12:34:06.687Z,100544.88
2022-10-05T12:37:03.139Z,100551.81
2022-10-05T12:39:40.917Z,100553.56
2022-10-05T12:42:24.288Z,100553.66
2022-10-05T12:45:25.767Z,100545.91
2022-10-05T12:48:19.048Z,100545.94
2022-10-05T12:50:51.475Z,100548.53
2022-10-05T12:53:32.209Z,100556.28
2022-10-05T12:56:10.894Z,100561.44
2022-10-05T12:58:53.895Z,100569.97
2022-10-05T13:01:35.455Z,100569.97
2022-10-05T13:04:18.638Z,100559.66
2022-10-05T13:06:57.917Z,100554.47
2022-10-05T13:09:35.421Z,100552.75
2022-10-05T13:12:11.098Z,100557.94
2022-10-05T13:14:56.350Z,100559.56
2022-10-05T13:17:35.676Z,100564.75
2022-10-05T13:20:14.409Z,100557.94
2022-10-05T13:22:46.939Z,100554.53
2022-10-05T13:25:31.659Z,100552.81
2022-10-05T13:28:17.151Z,100545.09
2022-10-05T13:30:55.283Z,100554.53
2022-10-05T13:33:38.574Z,100549.34
2022-10-05T13:36:18.081Z,100551.97
2022-10-05T13:38:57.211Z,100556.25
2022-10-05T13:41:34.840Z,100551.91
2022-10-05T13:44:18.430Z,100543.28
2022-10-05T13:46:51.408Z,100538.97
2022-10-05T13:49:29.151Z,100539.00
2022-10-05T13:52:08.907Z,100536.47
2022-10-05T13:54:53.818Z,100530.50
2022-10-05T13:57:45.354Z,100537.41
2022-10-05T14:00:24.141Z,100537.47
2022-10-05T14:02:57.098Z,100535.78
2022-10-05T14:05:28.661Z,100529.75
2022-10-05T14:07:59.818Z,100525.50
2022-10-05T14:10:36.758Z,100535.81
2022-10-05T14:13:21.717Z,100533.22
2022-10-05T14:16:05.958Z,100529.00
2022-10-05T14:18:38.407Z,100532.50
2022-10-05T14:21:22.353Z,100529.09
2022-10-05T14:23:51.200Z,100527.38
2022-10-05T14:26:34.671Z,100520.50
2022-10-05T14:29:17.293Z,100518.84
2022-10-05T14:31:52.774Z,100506.91
2022-10-05T14:34:32.110Z,100506.94
2022-10-05T14:37:10.380Z,100515.56
2022-10-05T14:39:44.453Z,100519.00
2022-10-05T14:42:19.945Z,100517.34
2022-10-05T14:45:01.144Z,100524.25
2022-10-05T14:47:32.693Z,100516.53
2022-10-05T14:50:14.170Z,100508.88
2022-10-05T14:52:51.623Z,100510.59
2022-10-05T14:55:42.914Z,100501.19
2022-10-05T14:58:30.002Z,100502.09
2022-10-05T15:01:11.508Z,100501.28
2022-10-05T15:03:49.322Z,100509.03
2022-10-05T15:06:27.373Z,100505.63
2022-10-05T15:09:29.842Z,100503.06
2022-10-05T15:12:01.595Z,100504.81
2022-10-05T15:14:33.771Z,100502.31
2022-10-05T15:17:04.566Z,100504.06
2022-10-05T15:19:47.202Z,100495.44
2022-10-05T15:22:26.840Z,100491.22
2022-10-05T15:25:01.905Z,100488.72
2022-10-05T15:27:38.490Z,100502.50
2022-10-05T15:30:13.073Z,100497.38
2022-10-05T15:32:57.892Z,100504.25
2022-10-05T15:35:46.745Z,100501.75
2022-10-05T15:38:23.164Z,100506.13
2022-10-05T15:41:03.829Z,100503.53
2022-10-05T15:43:46.929Z,100503.59
2022-10-05T15:46:19.512Z,100510.53
2022-10-05T15:48:56.100Z,100517.47
2022-10-05T15:51:37.836Z,100520.09
2022-10-05T15:54:21.641Z,100519.28
2022-10-05T15:57:01.072Z,100522.81
2022-10-05T15:59:35.889Z,100528.00
2022-10-05T16:02:15.836Z,100523.75
2022-10-05T16:04:53.560Z,100513.56
2022-10-05T16:07:38.982Z,100527.28
2022-10-05T16:10:17.553Z,100532.53
2022-10-05T16:13:05.483Z,100527.53
2022-10-05T16:15:39.785Z,100524.19
2022-10-05T16:18:32.381Z,100529.38
2022-10-05T16:21:11.135Z,100532.78
2022-10-05T16:23:52.833Z,100531.06
2022-10-05T16:26:34.082Z,100521.75
2022-10-05T16:29:10.690Z,100520.97
2022-10-05T16:31:47.451Z,100521.91
2022-10-05T16:34:31.152Z,100518.47
2022-10-05T16:37:10.040Z,100518.53
2022-10-05T16:39:53.282Z,100527.16
2022-10-05T16:42:42.196Z,100516.97
2022-10-05T16:45:29.498Z,100528.19
2022-10-05T16:48:06.511Z,100531.59
2022-10-05T16:50:44.919Z,100535.06
2022-10-05T16:53:19.304Z,100529.97
2022-10-05T16:55:53.610Z,100542.00
2022-10-05T16:58:27.864Z,100541.19
2022-10-05T17:01:12.924Z,100550.63
2022-10-05T17:03:55.004Z,100554.06
2022-10-05T17:06:44.293Z,100558.34
2022-10-05T17:09:42.079Z,100554.91
2022-10-05T17:12:31.283Z,100554.94
2022-10-05T17:15:13.212Z,100553.25
2022-10-05T17:18:05.172Z,100554.94
2022-10-05T17:20:46.146Z,100556.66
2022-10-05T17:23:30.529Z,100553.25
2022-10-05T17:26:17.469Z,100561.78
2022-10-05T17:29:01.249Z,100562.66
2022-10-05T17:31:32.763Z,100570.34
2022-10-05T17:34:27.790Z,100569.50
2022-10-05T17:37:00.026Z,100572.06
2022-10-05T17:39:50.406Z,100576.31
2022-10-05T17:42:47.934Z,100577.19
2022-10-05T17:45:38.385Z,100572.91
2022-10-05T17:48:11.050Z,100573.75
2022-10-05T17:50:54.204Z,100577.16
2022-10-05T17:53:33.803Z,100583.09
2022-10-05T17:56:05.711Z,100582.25
2022-10-05T17:59:02.833Z,100591.66
2022-10-05T18:01:37.172Z,100595.91
2022-10-05T18:04:30.669Z,100586.53
2022-10-05T18:07:06.833Z,100580.50
2022-10-05T18:09:37.791Z,100585.66
2022-10-05T18:12:37.222Z,100575.41
2022-10-05T18:15:45.420Z,100571.09
2022-10-05T18:18:35.819Z,100577.94
2022-10-05T18:21:24.655Z,100577.91
2022-10-05T18:24:17.620Z,100580.47
2022-10-05T18:26:59.873Z,100579.63
2022-10-05T18:29:57.952Z,100578.75
2022-10-05T18:32:36.953Z,100582.16
2022-10-05T18:35:11.636Z,100574.47
2022-10-05T18:37:49.489Z,100574.47
2022-10-05T18:40:31.903Z,100575.28
2022-10-05T18:43:13.747Z,100569.31
2022-10-05T18:46:01.199Z,100571.00
2022-10-05T18:48:39.002Z,100577.81
2022-10-05T18:51:20.162Z,100572.69
2022-10-05T18:54:03.262Z,100584.63
2022-10-05T18:56:39.373Z,100576.88
2022-10-05T18:59:25.895Z,100581.16
2022-10-05T19:02:07.879Z,100576.88
2022-10-05T19:04:50.610Z,100581.97
2022-10-05T19:07:32.821Z,100582.78
2022-10-05T19:10:13.080Z,100588.72
2022-10-05T19:12:58.343Z,100587.88
2022-10-05T19:15:35.629Z,100577.56
2022-10-05T19:18:34.923Z,100580.13
2022-10-05T19:21:14.782Z,100579.28
2022-10-05T19:24:01.443Z,100583.50
2022-10-05T19:26:48.861Z,100584.31
2022-10-05T19:29:34.560Z,100585.16
2022-10-05T19:32:09.273Z,100581.72
2022-10-05T19:34:55.543Z,100573.25
2022-10-05T19:37:36.104Z,100574.06
2022-10-05T19:40:13.842Z,100578.34
2022-10-05T19:43:02.769Z,100578.31
2022-10-05T19:45:38.826Z,100578.31
2022-10-05T19:48:20.623Z,100572.31
2022-10-05T19:50:58.710Z,100582.56
2022-10-05T19:53:31.257Z,100577.38
2022-10-05T19:56:20.358Z,100586.75
2022-10-05T19:58:50.251Z,100579.03
2022-10-05T20:01:27.706Z,100581.59
2022-10-05T20:03:57.879Z,100582.38
2022-10-05T20:06:27.229Z,100584.91
2022-10-05T20:09:00.414Z,100584.03
2022-10-05T20:11:29.814Z,100584.91
2022-10-05T20:14:19.244Z,100589.16
2022-10-05T20:16:59.249Z,100595.09
2022-10-05T20:19:45.879Z,100597.63
2022-10-05T20:22:34.406Z,100598.53
2022-10-05T20:25:05.929Z,100612.13
2022-10-05T20:27:46.712Z,100600.97
2022-10-05T20:30:18.529Z,100601.81
2022-10-05T20:32:50.625Z,100583.81
2022-10-05T20:35:22.337Z,100598.31
2022-10-05T20:37:51.291Z,100607.66
2022-10-05T20:40:21.545Z,100597.31
2022-10-05T20:42:50.540Z,100602.34
2022-10-05T20:45:19.151Z,100611.66
2022-10-05T20:47:49.170Z,100614.19
2022-10-05T20:50:17.903Z,100612.50
2022-10-05T20:52:46.481Z,100612.50
2022-10-05T20:55:15.050Z,100612.41
2022-10-05T20:57:43.669Z,100611.53
2022-10-05T21:00:14.390Z,100616.66
2022-10-05T21:02:43.073Z,100614.16
2022-10-05T21:05:13.142Z,100612.38
2022-10-05T21:07:42.022Z,100619.09
2022-10-05T21:10:11.025Z,100617.44
2022-10-05T21:12:39.641Z,100619.16
2022-10-05T21:15:10.563Z,100622.56
2022-10-05T21:17:39.332Z,100618.28
2022-10-05T21:20:11.561Z,100616.56
2022-10-05T21:22:43.284Z,100628.41
2022-10-05T21:25:11.953Z,100624.13
2022-10-05T21:27:41.499Z,100618.97
2022-10-05T21:30:10.599Z,100618.97
2022-10-05T21:32:43.944Z,100629.13
2022-10-05T21:35:13.185Z,100632.56
2022-10-05T21:37:43.202Z,100632.56
2022-10-05T21:40:12.424Z,100630.88
2022-10-05T21:42:41.043Z,100630.00
2022-10-05T21:45:11.061Z,100635.97
2022-10-05T21:47:39.689Z,100634.25
2022-10-05T21:50:09.921Z,100635.97
2022-10-05T21:52:38.683Z,100640.22
2022-10-05T21:55:09.814Z,100641.91
2022-10-05T21:57:39.434Z,100644.47
2022-10-05T22:00:09.813Z,100638.44
2022-10-05T22:02:38.594Z,100641.00
2022-10-05T22:05:07.513Z,100641.84
2022-10-05T22:07:36.354Z,100638.44
2022-10-05T22:10:05.916Z,100635.88
2022-10-05T22:12:36.064Z,100633.16
2022-10-05T22:15:06.522Z,100639.13
2022-10-05T22:17:36.335Z,100633.97
2022-10-05T22:20:05.033Z,100628.00
2022-10-05T22:22:33.666Z,100625.38
2022-10-05T22:25:02.276Z,100622.78
2022-10-05T22:27:32.035Z,100622.84
2022-10-05T22:30:04.092Z,100622.84
2022-10-05T22:32:32.747Z,100625.28
2022-10-05T22:35:01.345Z,100621.00
2022-10-05T22:37:30.346Z,100618.38
2022-10-05T22:39:59.015Z,100623.47
2022-10-05T22:42:28.047Z,100621.78
2022-10-05T22:44:57.037Z,100632.00
2022-10-05T22:47:27.313Z,100620.88
2022-10-05T22:49:55.904Z,100620.81
2022-10-05T22:52:24.634Z,100616.47
2022-10-05T22:54:53.446Z,100621.63
2022-10-05T22:57:22.175Z,100625.88
2022-10-05T22:59:50.937Z,100623.28
2022-10-05T23:02:20.079Z,100624.13
2022-10-05T23:04:50.244Z,100630.97
2022-10-05T23:07:19.085Z,100627.50
2022-10-05T23:09:47.676Z,100634.34
2022-10-05T23:12:16.369Z,100627.59
2022-10-05T23:14:44.938Z,100630.06
2022-10-05T23:17:13.602Z,100636.84
2022-10-05T23:19:42.190Z,100630.91
2022-10-05T23:22:12.280Z,100632.59
2022-10-05T23:24:40.927Z,100621.50
2022-10-05T23:27:09.559Z,100631.69
2022-10-05T23:29:38.297Z,100635.06
2022-10-05T23:32:08.400Z,100636.81
2022-10-05T23:34:37.018Z,100628.25
2022-10-05T23:37:05.876Z,100643.53
2022-10-05T23:39:35.802Z,100636.63
2022-10-05T23:42:05.331Z,100634.84
2022-10-05T23:44:34.047Z,100638.25
2022-10-05T23:47:02.550Z,100637.31
2022-10-05T23:49:31.118Z,100641.56
2022-10-05T23:52:00.006Z,100640.69
2022-10-05T23:54:28.545Z,100639.84
2022-10-05T23:56:58.498Z,100634.69
2022-10-05T23:59:27.168Z,100632.06
